Time;durP1;ratioP1;P1;durP2;ratioP2;P2;SDS_P1;SDS_P2;PMS_P1;PMS_P2;Temp;Humidity;BMP_temperature;BMP_pressure;BME280_temperature;BME280_humidity;BME280_pressure;Samples;Min_cycle;Max_cycle;Signal;HPM_P1;HPM_P2
2023/12/22 00:01:19;;;;;;;8.30;2.22;;;;;;;7.65;100.00;100238.53;5340778;27;20123;-79
2023/12/22 00:03:51;;;;;;;12.00;2.30;;;;;;;7.61;100.00;100237.94;5345746;27;20026;-79
2023/12/22 00:06:23;;;;;;;9.23;2.45;;;;;;;7.56;100.00;100220.09;5345507;27;20391;-79
2023/12/22 00:08:55;;;;;;;8.63;2.30;;;;;;;7.58;100.00;100206.94;5343123;27;20023;-79
2023/12/22 00:11:27;;;;;;;11.48;2.55;;;;;;;7.59;100.00;100226.03;5344132;27;20027;-79
2023/12/22 00:13:59;;;;;;;11.10;2.60;;;;;;;7.65;100.00;100215.94;5324335;27;20047;-79
2023/12/22 00:16:31;;;;;;;12.48;2.85;;;;;;;7.64;100.00;100205.59;5343737;27;20769;-79
2023/12/22 00:19:03;;;;;;;11.60;2.83;;;;;;;7.69;100.00;100219.06;5345567;27;20030;-79
2023/12/22 00:21:35;;;;;;;9.85;2.72;;;;;;;7.69;100.00;100245.16;5342007;27;20027;-79
2023/12/22 00:24:07;;;;;;;11.65;3.28;;;;;;;7.65;100.00;100238.53;5350180;27;20026;-79
2023/12/22 00:26:39;;;;;;;8.43;1.90;;;;;;;7.69;100.00;100255.56;5350198;27;20038;-79
2023/12/22 00:29:10;;;;;;;7.70;2.00;;;;;;;7.67;100.00;100249.69;5350557;27;20371;-79
2023/12/22 00:31:42;;;;;;;8.55;2.08;;;;;;;7.60;100.00;100258.94;5348974;27;20030;-80
2023/12/22 00:34:14;;;;;;;12.52;2.92;;;;;;;7.60;100.00;100261.56;5346243;27;20026;-79
2023/12/22 00:36:46;;;;;;;9.45;2.08;;;;;;;7.62;100.00;100252.66;5350651;27;20110;-79
2023/12/22 00:39:18;;;;;;;10.40;2.33;;;;;;;7.64;100.00;100265.56;5345988;27;20027;-79
2023/12/22 00:41:50;;;;;;;12.18;2.22;;;;;;;7.69;100.00;100274.69;5348847;27;20019;-79
2023/12/22 00:44:22;;;;;;;11.30;2.53;;;;;;;7.70;100.00;100259.84;5349771;27;20759;-79
2023/12/22 00:46:54;;;;;;;8.98;2.83;;;;;;;7.75;100.00;100262.91;5349121;27;20035;-79
2023/12/22 00:49:25;;;;;;;11.52;2.85;;;;;;;7.80;100.00;100266.81;5348732;27;20040;-79
2023/12/22 00:51:57;;;;;;;11.57;2.72;;;;;;;7.75;100.00;100268.94;5347099;27;20475;-80
2023/12/22 00:54:31;;;;;;;12.60;2.60;;;;;;;7.84;100.00;100266.53;5350507;27;20443;-79
2023/12/22 00:57:03;;;;;;;10.18;2.60;;;;;;;7.77;100.00;100266.22;5331445;27;20039;-79
2023/12/22 00:59:35;;;;;;;10.80;2.23;;;;;;;7.84;100.00;100266.53;5349209;27;20035;-79
2023/12/22 01:02:07;;;;;;;10.10;2.55;;;;;;;7.76;100.00;100256.72;5349290;27;20045;-79
2023/12/22 01:04:39;;;;;;;10.05;2.40;;;;;;;7.83;100.00;100263.09;5349213;27;20469;-79
2023/12/22 01:07:11;;;;;;;14.35;3.63;;;;;;;7.81;100.00;100267.63;5344192;27;20328;-80
2023/12/22 01:09:43;;;;;;;10.40;3.33;;;;;;;7.89;100.00;100278.25;5333430;27;20027;-79
2023/12/22 01:12:15;;;;;;;14.18;3.28;;;;;;;8.04;100.00;100271.75;5331537;27;20035;-80
2023/12/22 01:14:49;;;;;;;10.20;2.75;;;;;;;8.12;100.00;100263.28;5348825;27;20628;-79
2023/12/22 01:17:21;;;;;;;11.38;2.50;;;;;;;8.21;100.00;100261.69;5347512;27;20034;-79
2023/12/22 01:19:52;;;;;;;15.18;3.10;;;;;;;8.28;100.00;100266.25;5347532;27;20423;-80
2023/12/22 01:22:24;;;;;;;11.05;2.50;;;;;;;8.41;100.00;100266.09;5345620;27;20030;-79
2023/12/22 01:24:56;;;;;;;11.43;3.03;;;;;;;8.49;100.00;100274.09;5346489;27;20551;-79
2023/12/22 01:27:28;;;;;;;14.20;3.60;;;;;;;8.47;100.00;100276.00;5346550;27;20496;-79
2023/12/22 01:30:00;;;;;;;15.98;3.45;;;;;;;8.55;100.00;100296.22;5347542;27;20395;-79
2023/12/22 01:32:35;;;;;;;12.40;3.20;;;;;;;8.53;100.00;100303.38;5348662;27;20426;-79
2023/12/22 01:35:09;;;;;;;15.23;2.85;;;;;;;8.58;100.00;100292.53;5346650;27;20038;-79
2023/12/22 01:37:41;;;;;;;11.18;3.30;;;;;;;8.58;100.00;100292.53;5342281;27;20033;-79
2023/12/22 01:40:13;;;;;;;14.25;3.00;;;;;;;8.61;100.00;100292.28;5353563;27;20026;-79
2023/12/22 01:42:46;;;;;;;14.40;3.13;;;;;;;8.66;100.00;100300.53;5345239;27;20393;-79
2023/12/22 01:45:17;;;;;;;8.77;3.00;;;;;;;8.67;100.00;100303.00;5349518;27;20510;-79
2023/12/22 01:47:49;;;;;;;15.05;2.70;;;;;;;8.68;100.00;100296.03;5350699;27;20023;-79
2023/12/22 01:50:21;;;;;;;15.73;3.17;;;;;;;8.56;100.00;100287.47;5353315;27;20031;-79
2023/12/22 01:52:54;;;;;;;12.45;2.70;;;;;;;8.60;100.00;100293.22;5348491;27;20026;-79
2023/12/22 01:55:26;;;;;;;14.20;3.17;;;;;;;8.67;100.00;100313.47;5344800;27;20046;-79
2023/12/22 01:57:59;;;;;;;9.88;2.97;;;;;;;8.69;100.00;100311.56;5347496;27;20475;-79
2023/12/22 02:00:31;;;;;;;;;;;;;;;9.11;100.00;100318.44;5349123;27;20034;-79
2023/12/22 02:03:03;;;;;;;13.63;3.15;;;;;;;8.76;100.00;100345.81;5346156;27;19914;-79
2023/12/22 02:05:35;;;;;;;11.25;2.50;;;;;;;8.72;100.00;100318.31;5347467;27;20031;-79
2023/12/22 02:08:07;;;;;;;12.60;2.63;;;;;;;8.77;100.00;100326.56;5352982;27;20030;-80
2023/12/22 02:10:39;;;;;;;11.68;2.78;;;;;;;8.76;100.00;100327.53;5353552;27;20031;-79
2023/12/22 02:13:11;;;;;;;12.80;2.45;;;;;;;8.77;100.00;100323.97;5352037;27;20023;-79
2023/12/22 02:15:44;;;;;;;9.63;3.03;;;;;;;8.79;100.00;100316.84;5354226;27;20031;-79
2023/12/22 02:18:24;;;;;;;14.82;3.13;;;;;;;8.87;100.00;100303.94;5353052;27;20776;-79
2023/12/22 02:20:56;;;;;;;7.53;2.10;;;;;;;8.74;100.00;100306.75;5355698;27;20027;-79
2023/12/22 02:23:28;;;;;;;13.82;2.90;;;;;;;8.73;100.00;100283.41;5353805;27;20060;-79
2023/12/22 02:26:13;;;;;;;13.15;2.67;;;;;;;8.84;100.00;100304.19;5357430;27;20327;-79
2023/12/22 02:28:46;;;;;;;15.07;3.15;;;;;;;8.75;100.00;100311.03;5352819;27;20034;-80
2023/12/22 02:31:44;;;;;;;11.35;2.53;;;;;;;8.82;100.00;100303.47;5354452;27;20031;-80
2023/12/22 02:34:19;;;;;;;13.68;3.60;;;;;;;8.88;100.00;100323.03;5351952;27;20515;-80
2023/12/22 02:36:54;;;;;;;13.40;3.13;;;;;;;8.85;100.00;100333.75;5349809;27;20038;-80
2023/12/22 02:39:26;;;;;;;10.70;2.60;;;;;;;8.71;100.00;100355.81;5353466;27;20038;-80
2023/12/22 02:41:58;;;;;;;12.75;2.55;;;;;;;8.37;100.00;100353.44;5356657;27;20109;-80
2023/12/22 02:44:31;;;;;;;8.43;2.17;;;;;;;8.17;100.00;100315.91;5351269;27;20042;-79
2023/12/22 02:47:03;;;;;;;10.43;2.93;;;;;;;8.10;100.00;100333.03;5352063;27;20026;-80
2023/12/22 02:49:35;;;;;;;9.90;2.40;;;;;;;7.95;100.00;100327.28;5350910;27;20034;-80
2023/12/22 02:52:06;;;;;;;11.80;2.75;;;;;;;7.89;100.00;100312.16;5349790;27;20939;-80
2023/12/22 02:54:40;;;;;;;9.98;3.08;;;;;;;7.75;100.00;100312.44;5329675;27;20135;-80
2023/12/22 02:57:11;;;;;;;14.68;2.72;;;;;;;7.82;100.00;100316.22;5313204;27;20035;-80
2023/12/22 02:59:43;;;;;;;10.40;2.67;;;;;;;7.71;100.00;100301.44;5313135;27;20130;-80
2023/12/22 03:02:15;;;;;;;12.50;2.25;;;;;;;7.75;100.00;100300.22;5312329;27;20039;-80
2023/12/22 03:04:47;;;;;;;11.63;3.17;;;;;;;7.67;100.00;100301.81;5310532;27;20027;-80
2023/12/22 03:07:19;;;;;;;13.85;3.72;;;;;;;7.58;100.00;100298.19;5312766;27;20031;-80
2023/12/22 03:09:51;;;;;;;14.18;3.00;;;;;;;7.66;100.00;100300.16;5314371;27;20031;-80
2023/12/22 03:12:23;;;;;;;14.23;3.35;;;;;;;7.71;100.00;100303.22;5315088;27;20146;-80
2023/12/22 03:14:54;;;;;;;12.93;2.92;;;;;;;7.74;100.00;100295.97;5311689;27;20100;-80
2023/12/22 03:17:26;;;;;;;15.68;3.25;;;;;;;7.76;100.00;100288.03;5311005;27;20023;-79
2023/12/22 03:19:58;;;;;;;14.77;3.65;;;;;;;7.79;100.00;100287.78;5314560;27;20165;-80
2023/12/22 03:22:30;;;;;;;14.02;3.53;;;;;;;7.76;100.00;100288.84;5310965;28;20038;-80
2023/12/22 03:25:02;;;;;;;14.88;3.53;;;;;;;7.76;100.00;100288.03;5303414;28;20746;-80
2023/12/22 03:27:34;;;;;;;19.10;3.08;;;;;;;7.84;100.00;100287.38;5311096;27;20031;-80
2023/12/22 03:30:06;;;;;;;17.70;3.92;;;;;;;7.85;100.00;100289.88;5308596;27;20123;-80
2023/12/22 03:32:38;;;;;;;13.53;3.07;;;;;;;7.88;100.00;100281.81;5310230;28;20031;-80
2023/12/22 03:35:10;;;;;;;13.95;3.15;;;;;;;7.91;100.00;100284.16;5310914;27;20040;-80
2023/12/22 03:37:42;;;;;;;12.50;2.70;;;;;;;7.99;100.00;100288.72;5310482;28;20474;-80
2023/12/22 03:40:14;;;;;;;11.77;2.85;;;;;;;8.04;100.00;100304.84;5310378;28;20449;-80
2023/12/22 03:42:46;;;;;;;13.27;2.97;;;;;;;8.10;100.00;100280.84;5313637;27;20034;-80
2023/12/22 03:45:18;;;;;;;12.05;2.97;;;;;;;8.13;100.00;100282.38;5314420;27;20039;-80
2023/12/22 03:47:49;;;;;;;12.80;2.58;;;;;;;8.20;100.00;100297.41;5310845;27;20035;-80
2023/12/22 03:50:21;;;;;;;10.40;2.45;;;;;;;8.26;100.00;100299.50;5313161;27;20026;-80
2023/12/22 03:52:53;;;;;;;13.75;3.33;;;;;;;8.32;100.00;100292.91;5289674;28;20127;-80
2023/12/22 03:55:25;;;;;;;10.70;2.40;;;;;;;8.41;100.00;100301.78;5343643;27;20072;-80
2023/12/22 03:57:57;;;;;;;11.63;2.63;;;;;;;8.43;100.00;100294.66;5347154;27;20022;-80
2023/12/22 04:00:29;;;;;;;13.50;2.88;;;;;;;8.48;100.00;100305.53;5348348;27;20122;-80
2023/12/22 04:03:01;;;;;;;10.70;2.28;;;;;;;8.50;100.00;100298.41;5347963;27;20044;-80
2023/12/22 04:05:33;;;;;;;11.60;2.70;;;;;;;8.55;100.00;100306.69;5350021;27;20365;-80
2023/12/22 04:08:06;;;;;;;13.75;3.05;;;;;;;8.60;100.00;100314.97;5348270;27;20038;-80
2023/12/22 04:10:38;;;;;;;10.98;2.55;;;;;;;8.71;100.00;100308.81;5350113;27;20026;-80
2023/12/22 04:13:10;;;;;;;12.38;2.67;;;;;;;8.66;100.00;100296.16;5347619;27;20030;-80
2023/12/22 04:15:41;;;;;;;10.50;3.08;;;;;;;8.76;100.00;100317.91;5350137;27;20049;-80
2023/12/22 04:18:13;;;;;;;11.00;2.58;;;;;;;8.76;100.00;100325.75;5349047;27;20123;-80
2023/12/22 04:20:45;;;;;;;11.43;2.80;;;;;;;8.83;100.00;100331.28;5350604;27;20039;-80
2023/12/22 04:23:17;;;;;;;10.23;2.30;;;;;;;8.86;100.00;100319.72;5348995;27;20027;-80
2023/12/22 04:25:50;;;;;;;14.35;3.47;;;;;;;8.87;100.00;100322.22;5348521;27;21543;-80
2023/12/22 04:28:21;;;;;;;10.55;2.30;;;;;;;8.94;100.00;100336.41;5346110;27;20026;-80
2023/12/22 04:30:53;;;;;;;17.65;3.88;;;;;;;8.98;100.00;100342.19;5345492;27;20033;-80
2023/12/22 04:33:26;;;;;;;12.00;2.88;;;;;;;9.04;100.00;100338.22;5347886;27;20037;-80
2023/12/22 04:35:58;;;;;;;12.50;2.70;;;;;;;9.05;100.00;100356.38;5347152;27;20034;-80
2023/12/22 04:38:30;;;;;;;13.23;3.25;;;;;;;9.08;100.00;100347.44;5351330;27;20042;-80
2023/12/22 04:41:02;;;;;;;10.75;2.90;;;;;;;9.07;100.00;100336.16;5348254;27;20030;-80
2023/12/22 04:43:34;;;;;;;16.47;2.60;;;;;;;9.17;100.00;100360.56;5346630;27;20042;-80
2023/12/22 04:46:06;;;;;;;9.68;2.28;;;;;;;9.15;100.00;100351.19;5348385;27;20391;-80
2023/12/22 04:48:38;;;;;;;11.02;2.50;;;;;;;9.17;100.00;100344.06;5346014;27;20134;-80
2023/12/22 04:51:09;;;;;;;11.95;2.95;;;;;;;9.09;100.00;100336.03;5346685;27;20061;-80
2023/12/22 04:53:41;;;;;;;10.00;2.20;;;;;;;9.12;100.00;100343.59;5348439;27;20049;-79
2023/12/22 04:56:13;;;;;;;14.25;3.08;;;;;;;9.11;100.00;100347.19;5349763;27;20075;-80
2023/12/22 04:58:45;;;;;;;10.63;2.45;;;;;;;9.05;100.00;100334.63;5327377;27;20027;-80
2023/12/22 05:01:18;;;;;;;12.13;2.78;;;;;;;9.12;100.00;100343.59;5348357;27;20038;-80
2023/12/22 05:03:50;;;;;;;11.75;2.90;;;;;;;9.19;100.00;100355.19;5344481;27;20042;-79
2023/12/22 05:06:22;;;;;;;12.10;2.20;;;;;;;9.20;100.00;100351.59;5342905;27;20117;-79
2023/12/22 05:08:53;;;;;;;12.43;3.00;;;;;;;9.21;100.00;100354.09;5344907;27;20471;-79
2023/12/22 05:11:25;;;;;;;16.23;3.13;;;;;;;9.21;100.00;100366.34;5353493;27;20447;-79
2023/12/22 05:13:57;;;;;;;13.40;3.40;;;;;;;9.24;100.00;100363.44;5346573;27;20048;-80
2023/12/22 05:16:31;;;;;;;16.35;3.90;;;;;;;9.19;100.00;100350.78;5345663;27;20118;-79
2023/12/22 05:19:02;;;;;;;11.68;3.00;;;;;;;9.18;100.00;100330.84;5342224;27;20031;-79
2023/12/22 05:21:34;;;;;;;16.42;4.00;;;;;;;9.19;100.00;100348.16;5345074;27;20480;-79
2023/12/22 05:24:06;;;;;;;11.27;3.40;;;;;;;9.18;100.00;100359.59;5348035;27;20052;-79
2023/12/22 05:26:38;;;;;;;15.05;3.58;;;;;;;9.23;100.00;100356.56;5347950;27;20031;-79
2023/12/22 05:29:12;;;;;;;15.25;3.72;;;;;;;9.22;100.00;100362.75;5350787;27;20031;-79
2023/12/22 05:31:44;;;;;;;17.75;3.92;;;;;;;9.26;100.00;100356.31;5348061;27;20031;-80
2023/12/22 05:34:16;;;;;;;20.48;4.03;;;;;;;9.21;100.00;100358.50;5351727;27;20031;-79
2023/12/22 05:36:48;;;;;;;22.25;4.43;;;;;;;9.19;100.00;100339.50;5348034;27;20121;-79
2023/12/22 05:39:20;;;;;;;15.98;3.90;;;;;;;9.24;100.00;100343.38;5351095;27;20242;-79
2023/12/22 05:41:52;;;;;;;16.45;4.30;;;;;;;9.23;100.00;100356.56;5349777;27;20434;-79
2023/12/22 05:44:24;;;;;;;17.27;4.85;;;;;;;9.26;100.00;100356.31;5345521;27;20130;-79
2023/12/22 05:46:59;;;;;;;17.25;4.30;;;;;;;9.27;100.00;100348.31;5349550;27;20023;-79
2023/12/22 05:49:30;;;;;;;18.92;4.30;;;;;;;9.19;100.00;100334.28;5346387;27;20400;-80
2023/12/22 05:52:03;;;;;;;16.77;4.53;;;;;;;9.18;100.00;100341.28;5326485;27;20031;-79
2023/12/22 05:54:35;;;;;;;14.02;4.47;;;;;;;9.17;100.00;100355.31;5345734;27;20043;-79
2023/12/22 05:57:07;;;;;;;20.38;5.35;;;;;;;9.14;100.00;100355.59;5349463;27;20035;-79
2023/12/22 05:59:39;;;;;;;22.35;4.63;;;;;;;9.09;100.00;100344.72;5346597;27;20499;-79
2023/12/22 06:02:11;;;;;;;17.25;4.88;;;;;;;9.10;100.00;100348.97;5346525;27;20053;-79
2023/12/22 06:04:43;;;;;;;19.80;4.88;;;;;;;9.12;100.00;100336.59;5348121;27;20027;-79
2023/12/22 06:07:15;;;;;;;20.45;4.53;;;;;;;9.17;100.00;100338.81;5349525;27;20038;-79
2023/12/22 06:09:47;;;;;;;18.58;4.65;;;;;;;9.17;100.00;100333.59;5352702;27;20084;-79
2023/12/22 06:12:19;;;;;;;26.60;5.50;;;;;;;9.13;100.00;100329.56;5346917;27;20031;-79
2023/12/22 06:14:51;;;;;;;21.80;5.05;;;;;;;9.09;100.00;100323.81;5344501;27;20469;-79
2023/12/22 06:17:23;;;;;;;26.67;6.32;;;;;;;9.16;100.00;100329.31;5351418;27;20510;-79
2023/12/22 06:19:55;;;;;;;21.92;4.68;;;;;;;9.20;100.00;100341.16;5348093;27;20458;-79
2023/12/22 06:22:27;;;;;;;23.52;6.07;;;;;;;9.25;100.00;100326.72;5350249;27;20118;-79
2023/12/22 06:24:59;;;;;;;18.65;5.38;;;;;;;9.29;100.00;100324.69;5350534;27;20403;-79
2023/12/22 06:27:31;;;;;;;24.63;5.45;;;;;;;9.33;100.00;100326.06;5350473;27;20031;-79
2023/12/22 06:30:05;;;;;;;23.35;5.53;;;;;;;9.38;100.00;100325.66;5348060;27;20027;-79
2023/12/22 06:32:39;;;;;;;28.02;6.60;;;;;;;9.34;100.00;100316.44;5346626;27;20038;-79
2023/12/22 06:35:11;;;;;;;24.38;5.93;;;;;;;9.41;100.00;100325.38;5348270;27;20019;-79
2023/12/22 06:37:43;;;;;;;18.27;5.72;;;;;;;9.45;100.00;100327.59;5344445;27;20031;-79
2023/12/22 06:40:15;;;;;;;24.42;5.78;;;;;;;9.45;100.00;100343.28;5347079;27;20468;-78
2023/12/22 06:42:47;;;;;;;23.88;6.47;;;;;;;9.49;100.00;100349.06;5343455;27;20114;-79
2023/12/22 06:45:19;;;;;;;21.67;5.78;;;;;;;9.49;100.00;100365.56;5343546;27;20023;-79
2023/12/22 06:47:50;;;;;;;20.35;5.78;;;;;;;9.47;100.00;100353.59;5343476;27;20023;-79
2023/12/22 06:50:22;;;;;;;22.23;5.85;;;;;;;9.44;100.00;100354.69;5343464;27;20027;-78
2023/12/22 06:52:54;;;;;;;24.55;5.53;;;;;;;9.44;100.00;100348.66;5346152;27;20035;-78
2023/12/22 06:55:27;;;;;;;26.60;5.60;;;;;;;9.45;100.00;100352.91;5344218;27;20047;-78
2023/12/22 06:57:58;;;;;;;27.55;6.68;;;;;;;9.52;100.00;100343.56;5347194;27;20027;-79
2023/12/22 07:00:31;;;;;;;22.13;5.32;;;;;;;9.55;100.00;100337.25;5345115;27;20054;-79
2023/12/22 07:03:03;;;;;;;26.33;7.60;;;;;;;9.62;100.00;100357.50;5346558;27;20380;-78
2023/12/22 07:05:36;;;;;;;26.50;6.28;;;;;;;9.58;100.00;100348.25;5331197;27;20411;-79
2023/12/22 07:08:08;;;;;;;30.75;6.13;;;;;;;9.61;100.00;100344.53;5345029;27;20039;-79
2023/12/22 07:10:40;;;;;;;27.73;6.25;;;;;;;9.64;100.00;100339.84;5349385;27;20025;-80
2023/12/22 07:13:11;;;;;;;23.15;5.78;;;;;;;9.65;100.00;100341.50;5346947;27;20146;-79
2023/12/22 07:15:43;;;;;;;26.17;5.40;;;;;;;9.69;100.00;100352.53;5346177;27;20033;-79
2023/12/22 07:18:15;;;;;;;23.05;6.03;;;;;;;9.68;100.00;100348.25;5333925;27;20031;-78
2023/12/22 07:20:48;;;;;;;22.83;6.28;;;;;;;9.70;100.00;100341.13;5347370;27;20023;-79
2023/12/22 07:23:20;;;;;;;24.58;6.72;;;;;;;9.71;100.00;100340.97;5354617;27;20022;-79
2023/12/22 07:25:52;;;;;;;22.92;6.53;;;;;;;9.71;100.00;100345.38;5349372;27;20352;-79
2023/12/22 07:28:24;;;;;;;24.13;6.07;;;;;;;9.68;100.00;100338.63;5351967;27;20027;-79
2023/12/22 07:30:56;;;;;;;26.20;6.13;;;;;;;9.78;100.00;100330.78;5350019;27;20022;-79
2023/12/22 07:33:28;;;;;;;25.77;6.13;;;;;;;9.81;100.00;100327.91;5341045;27;20022;-79
2023/12/22 07:36:00;;;;;;;24.30;5.93;;;;;;;9.83;100.00;100339.03;5346613;27;20042;-79
2023/12/22 07:38:32;;;;;;;23.55;5.50;;;;;;;9.84;100.00;100342.47;5343579;27;20472;-79
2023/12/22 07:41:04;;;;;;;29.38;6.72;;;;;;;9.88;100.00;100339.44;5348542;27;20041;-79
2023/12/22 07:43:36;;;;;;;30.20;5.97;;;;;;;9.89;100.00;100338.50;5357170;27;20039;-82
2023/12/22 07:46:09;;;;;;;24.02;5.40;;;;;;;9.82;100.00;100326.94;5354262;27;20122;-82
2023/12/22 07:48:41;;;;;;;25.33;5.68;;;;;;;9.79;100.00;100321.97;5347615;27;20031;-78
2023/12/22 07:51:13;;;;;;;20.55;5.72;;;;;;;9.81;100.00;100327.06;5350486;27;20485;-79
2023/12/22 07:53:45;;;;;;;21.52;5.88;;;;;;;9.87;100.00;100340.41;5343100;27;20503;-79
2023/12/22 07:56:16;;;;;;;26.10;5.65;;;;;;;9.84;100.00;100332.00;5351424;27;20037;-79
2023/12/22 07:58:48;;;;;;;24.05;6.05;;;;;;;9.89;100.00;100327.22;5346901;27;20033;-81
2023/12/22 08:01:20;;;;;;;25.95;5.15;;;;;;;9.87;100.00;100327.34;5351687;27;20027;-81
2023/12/22 08:03:52;;;;;;;22.58;5.32;;;;;;;9.87;100.00;100335.19;5348121;27;20037;-79
2023/12/22 08:06:24;;;;;;;20.98;5.38;;;;;;;9.83;100.00;100343.44;5339970;27;20023;-79
2023/12/22 08:08:56;;;;;;;20.92;4.70;;;;;;;9.93;100.00;100336.44;5353317;27;20039;-79
2023/12/22 08:11:28;;;;;;;22.20;5.50;;;;;;;9.92;100.00;100334.75;5354076;27;20033;-79
2023/12/22 08:14:00;;;;;;;20.45;4.60;;;;;;;9.94;100.00;100338.91;5353237;27;20395;-79
2023/12/22 08:16:32;;;;;;;19.33;5.38;;;;;;;9.92;100.00;100340.81;5354593;27;20094;-79
2023/12/22 08:19:04;;;;;;;14.48;3.80;;;;;;;9.97;100.00;100328.16;5352109;27;20026;-79
2023/12/22 08:21:36;;;;;;;14.65;4.25;;;;;;;9.92;100.00;100330.34;5357425;27;20470;-79
2023/12/22 08:24:08;;;;;;;21.70;4.88;;;;;;;9.98;100.00;100332.44;5353240;27;20437;-79
2023/12/22 08:26:40;;;;;;;15.77;4.55;;;;;;;10.03;100.00;100333.81;5354207;27;20027;-79
2023/12/22 08:29:12;;;;;;;15.80;3.90;;;;;;;9.99;100.00;100334.06;5357073;27;20381;-79
2023/12/22 08:31:44;;;;;;;14.60;3.55;;;;;;;9.97;100.00;100328.16;5356881;27;20026;-79
2023/12/22 08:34:15;;;;;;;18.67;3.92;;;;;;;10.03;100.00;100332.00;5354048;27;20031;-79
2023/12/22 08:36:47;;;;;;;11.90;3.17;;;;;;;10.05;100.00;100331.88;5356942;27;20405;-79
2023/12/22 08:39:19;;;;;;;13.82;3.45;;;;;;;9.99;100.00;100335.88;5354442;27;20091;-79
2023/12/22 08:41:52;;;;;;;13.70;3.25;;;;;;;10.06;100.00;100334.34;5348816;27;20031;-79
2023/12/22 08:44:24;;;;;;;15.70;3.63;;;;;;;10.11;100.00;100331.31;5346213;27;20037;-79
2023/12/22 08:46:55;;;;;;;12.60;3.22;;;;;;;10.09;100.00;100322.78;5337037;27;20496;-79
2023/12/22 08:49:27;;;;;;;12.52;3.13;;;;;;;10.13;100.00;100311.06;5351585;27;20403;-79
2023/12/22 08:51:59;;;;;;;11.15;2.65;;;;;;;10.16;100.00;100331.72;5354560;27;20030;-79
2023/12/22 08:54:31;;;;;;;9.57;2.85;;;;;;;10.14;100.00;100326.63;5356874;27;20106;-79
2023/12/22 08:57:03;;;;;;;11.40;2.72;;;;;;;10.10;100.00;100321.81;5355969;27;20035;-79
2023/12/22 08:59:35;;;;;;;9.10;2.30;;;;;;;10.11;100.00;100329.50;5355892;27;20023;-79
2023/12/22 09:02:07;;;;;;;11.93;3.08;;;;;;;10.08;100.00;100321.16;5352612;27;20061;-79
2023/12/22 09:04:39;;;;;;;12.35;2.58;;;;;;;10.02;100.00;100311.22;5349721;27;20019;-79
2023/12/22 09:07:10;;;;;;;8.98;2.10;;;;;;;10.06;100.00;100320.44;5355516;27;20110;-79
2023/12/22 09:09:42;;;;;;;7.50;2.30;;;;;;;10.09;100.00;100309.69;5352886;27;20022;-79
2023/12/22 09:12:15;;;;;;;9.43;2.10;;;;;;;10.07;100.00;100309.00;5355219;27;20160;-79
2023/12/22 09:14:47;;;;;;;8.32;2.03;;;;;;;10.13;100.00;100305.84;5352353;27;20030;-79
2023/12/22 09:17:19;;;;;;;9.30;2.10;;;;;;;10.12;100.00;100318.09;5354729;27;20563;-79
2023/12/22 09:19:51;;;;;;;9.18;2.00;;;;;;;10.17;100.00;100317.66;5359130;27;20435;-79
2023/12/22 09:22:23;;;;;;;6.65;2.00;;;;;;;10.18;100.00;100316.69;5357322;27;20114;-79
2023/12/22 09:24:54;;;;;;;7.95;2.10;;;;;;;10.21;100.00;100317.25;5355811;27;20099;-79
2023/12/22 09:27:30;;;;;;;5.00;1.80;;;;;;;10.19;100.00;100328.81;5356868;27;20027;-79
2023/12/22 09:30:02;;;;;;;4.80;1.65;;;;;;;10.26;100.00;100322.09;5348978;27;20027;-79
2023/12/22 09:32:34;;;;;;;5.25;1.25;;;;;;;10.27;100.00;100305.44;5349410;27;20035;-79
2023/12/22 09:35:07;;;;;;;7.45;1.50;;;;;;;10.37;100.00;100321.91;5349608;27;20365;-79
2023/12/22 09:37:40;;;;;;;4.40;1.30;;;;;;;10.39;100.00;100299.06;5349797;27;20031;-79
2023/12/22 09:40:12;;;;;;;4.22;1.20;;;;;;;10.42;100.00;100293.53;5352421;27;20022;-79
2023/12/22 09:42:46;;;;;;;7.22;1.40;;;;;;;10.46;100.00;100294.91;5348324;27;20030;-79
2023/12/22 09:45:20;;;;;;;5.45;1.48;;;;;;;10.43;100.00;100300.41;5350438;27;20752;-79
2023/12/22 09:47:54;;;;;;;9.23;1.98;;;;;;;10.52;100.00;100290.06;5355198;27;20027;-79
2023/12/22 09:50:27;;;;;;;4.30;1.48;;;;;;;10.60;100.00;100290.16;5329624;27;20035;-79
2023/12/22 09:53:01;;;;;;;5.65;1.30;;;;;;;10.67;100.00;100313.00;5353742;27;20031;-79
2023/12/22 09:55:34;;;;;;;4.22;1.20;;;;;;;10.64;100.00;100291.50;5350333;27;20070;-79
2023/12/22 09:58:08;;;;;;;4.43;1.10;;;;;;;10.66;100.00;100302.69;5351641;27;20495;-79
2023/12/22 10:00:40;;;;;;;5.70;1.30;;;;;;;10.73;100.00;100305.56;5350023;27;20077;-80
2023/12/22 10:03:13;;;;;;;6.22;1.30;;;;;;;10.76;100.00;100287.75;5351760;27;20053;-80
2023/12/22 10:05:45;;;;;;;6.15;1.50;;;;;;;10.89;100.00;100284.78;5352401;27;20088;-80
2023/12/22 10:08:19;;;;;;;6.30;1.20;;;;;;;10.84;100.00;100287.84;5347452;27;20053;-79
2023/12/22 10:10:52;;;;;;;7.72;1.70;;;;;;;10.88;100.00;100299.69;5351694;27;20035;-79
2023/12/22 10:13:27;;;;;;;6.85;1.27;;;;;;;10.99;100.00;100293.44;5353539;27;20041;-79
2023/12/22 10:16:00;;;;;;;8.35;1.65;;;;;;;11.06;100.00;100291.88;5352469;27;20066;-79
2023/12/22 10:18:33;;;;;;;6.55;1.27;;;;;;;11.06;100.00;100291.88;5326895;27;20031;-79
2023/12/22 10:21:05;;;;;;;12.20;3.25;;;;;;;11.13;100.00;100297.34;5351007;27;20031;-80
2023/12/22 10:23:36;;;;;;;6.20;2.78;;;;;;;11.15;100.00;100292.78;5353491;27;20583;-79
2023/12/22 10:26:12;;;;;;;5.30;1.88;;;;;;;11.24;100.00;100306.81;5352043;27;20030;-79
2023/12/22 10:28:47;;;;;;;6.07;2.42;;;;;;;11.27;100.00;100299.47;5351892;27;20035;-80
2023/12/22 10:31:19;;;;;;;7.07;1.95;;;;;;;11.22;100.00;100300.91;5350640;27;20031;-79
2023/12/22 10:33:51;;;;;;;5.60;1.30;;;;;;;11.25;100.00;100301.44;5353793;27;20057;-79
2023/12/22 10:36:22;;;;;;;5.38;1.65;;;;;;;11.19;100.00;100288.91;5352206;27;20015;-80
2023/12/22 10:38:54;;;;;;;6.10;1.63;;;;;;;11.29;100.00;100313.28;5354478;27;20027;-79
2023/12/22 10:41:26;;;;;;;6.93;1.30;;;;;;;11.29;100.00;100300.16;5351325;27;20018;-79
2023/12/22 10:43:58;;;;;;;4.43;1.20;;;;;;;11.37;100.00;100308.09;5344744;27;20027;-79
2023/12/22 10:46:33;;;;;;;4.00;1.10;;;;;;;11.35;100.00;100302.19;5353994;27;20035;-79
2023/12/22 10:49:08;;;;;;;9.75;1.75;;;;;;;11.37;100.00;100305.50;5352216;27;20023;-79
2023/12/22 10:51:40;;;;;;;4.57;1.27;;;;;;;11.39;100.00;100313.19;5349955;27;20038;-79
2023/12/22 10:54:11;;;;;;;4.22;1.45;;;;;;;11.36;100.00;100303.81;5327333;27;20043;-79
2023/12/22 10:56:43;;;;;;;6.60;1.50;;;;;;;11.36;100.00;100316.94;5332667;27;20502;-79
2023/12/22 10:59:22;;;;;;;6.30;1.25;;;;;;;11.49;100.00;100307.91;5324944;27;20031;-79
2023/12/22 11:01:57;;;;;;;5.28;1.52;;;;;;;11.49;100.00;100313.97;5324623;27;20516;-79
2023/12/22 11:04:34;;;;;;;5.55;1.25;;;;;;;11.44;100.00;100298.69;5325964;27;20396;-79
2023/12/22 11:07:09;;;;;;;5.97;1.80;;;;;;;11.56;100.00;100312.41;5323832;27;20031;-79
2023/12/22 11:09:44;;;;;;;4.80;1.20;;;;;;;11.57;100.00;100298.28;5329974;27;20050;-79
2023/12/22 11:12:17;;;;;;;5.28;1.35;;;;;;;11.57;100.00;100305.34;5326558;27;20038;-79
2023/12/22 11:14:52;;;;;;;4.22;1.10;;;;;;;11.61;100.00;100304.06;5322874;27;20057;-79
2023/12/22 11:17:26;;;;;;;4.18;1.35;;;;;;;11.56;100.00;100275.66;5321682;27;20074;-79
2023/12/22 11:19:58;;;;;;;6.10;1.08;;;;;;;11.64;100.00;100295.91;5333710;27;20240;-79
2023/12/22 11:22:31;;;;;;;6.63;1.20;;;;;;;11.73;100.00;100300.25;5319935;27;20020;-79
2023/12/22 11:25:04;;;;;;;;;;;;;;;12.01;100.00;100284.41;5323362;27;20052;-80
2023/12/22 11:27:37;;;;;;;6.70;1.38;;;;;;;11.73;100.00;100288.91;5323703;27;20278;-79
2023/12/22 11:30:11;;;;;;;5.30;1.40;;;;;;;11.69;100.00;100294.47;5324776;27;20027;-79
2023/12/22 11:32:44;;;;;;;7.50;1.20;;;;;;;11.66;100.00;100296.56;5324555;27;20088;-79
2023/12/22 11:35:17;;;;;;;4.38;1.15;;;;;;;11.72;100.00;100287.28;5315424;28;20028;-79
2023/12/22 11:37:49;;;;;;;4.28;1.15;;;;;;;11.74;100.00;100280.88;5320686;27;20464;-79
2023/12/22 11:40:21;;;;;;;5.05;1.50;;;;;;;11.74;100.00;100280.88;5320252;27;20019;-79